sensor_id;sensor_type;location;lat;lon;timestamp;temperature;humidity
64396;DHT22;50717;53.360;6.290;2023-05-16T00:00:14;9.00;99.90
64396;DHT22;50717;53.360;6.290;2023-05-16T00:02:40;9.10;99.90
64396;DHT22;50717;53.360;6.290;2023-05-16T00:05:06;9.00;99.90
64396;DHT22;50717;53.360;6.290;2023-05-16T00:07:33;8.90;99.90
64396;DHT22;50717;53.360;6.290;2023-05-16T00:09:59;8.80;99.90
64396;DHT22;50717;53.360;6.290;2023-05-16T00:12:25;9.00;99.90
64396;DHT22;50717;53.360;6.290;2023-05-16T00:14:51;9.10;99.90
64396;DHT22;50717;53.360;6.290;2023-05-16T00:17:18;8.80;99.90
64396;DHT22;50717;53.360;6.290;2023-05-16T00:19:46;9.20;99.90
64396;DHT22;50717;53.360;6.290;2023-05-16T00:22:16;8.80;99.90
64396;DHT22;50717;53.360;6.290;2023-05-16T00:24:42;8.90;99.90
64396;DHT22;50717;53.360;6.290;2023-05-16T00:27:07;8.70;99.90
64396;DHT22;50717;53.360;6.290;2023-05-16T00:29:34;8.80;99.90
64396;DHT22;50717;53.360;6.290;2023-05-16T00:32:00;8.90;99.90
64396;DHT22;50717;53.360;6.290;2023-05-16T00:34:25;9.10;99.90
64396;DHT22;50717;53.360;6.290;2023-05-16T00:36:52;8.90;99.90
64396;DHT22;50717;53.360;6.290;2023-05-16T00:39:18;8.70;99.90
64396;DHT22;50717;53.360;6.290;2023-05-16T00:41:44;9.00;99.90
64396;DHT22;50717;53.360;6.290;2023-05-16T00:44:10;8.60;99.90
64396;DHT22;50717;53.360;6.290;2023-05-16T00:46:36;9.00;99.90
64396;DHT22;50717;53.360;6.290;2023-05-16T00:49:02;9.20;99.90
64396;DHT22;50717;53.360;6.290;2023-05-16T00:51:28;8.90;99.90
64396;DHT22;50717;53.360;6.290;2023-05-16T00:53:55;8.80;99.90
64396;DHT22;50717;53.360;6.290;2023-05-16T00:56:21;9.10;99.90
64396;DHT22;50717;53.360;6.290;2023-05-16T00:58:47;9.00;99.90
64396;DHT22;50717;53.360;6.290;2023-05-16T01:01:14;8.80;99.90
64396;DHT22;50717;53.360;6.290;2023-05-16T01:03:41;8.70;99.90
64396;DHT22;50717;53.360;6.290;2023-05-16T01:06:07;8.70;99.90
64396;DHT22;50717;53.360;6.290;2023-05-16T01:08:33;9.20;99.90
64396;DHT22;50717;53.360;6.290;2023-05-16T01:14:18;8.70;99.90
64396;DHT22;50717;53.360;6.290;2023-05-16T01:28:03;9.10;99.90
64396;DHT22;50717;53.360;6.290;2023-05-16T01:30:37;8.50;99.90
64396;DHT22;50717;53.360;6.290;2023-05-16T01:33:03;8.80;99.90
64396;DHT22;50717;53.360;6.290;2023-05-16T01:35:29;8.70;99.90
64396;DHT22;50717;53.360;6.290;2023-05-16T01:43:20;8.50;99.90
64396;DHT22;50717;53.360;6.290;2023-05-16T01:45:54;8.80;99.90
64396;DHT22;50717;53.360;6.290;2023-05-16T01:48:23;8.90;99.90
64396;DHT22;50717;53.360;6.290;2023-05-16T01:50:54;8.70;99.90
64396;DHT22;50717;53.360;6.290;2023-05-16T01:53:36;8.60;99.90
64396;DHT22;50717;53.360;6.290;2023-05-16T01:56:03;8.90;99.90
64396;DHT22;50717;53.360;6.290;2023-05-16T01:58:32;8.70;99.90
64396;DHT22;50717;53.360;6.290;2023-05-16T02:01:03;8.70;99.90
64396;DHT22;50717;53.360;6.290;2023-05-16T02:03:33;8.40;99.90
64396;DHT22;50717;53.360;6.290;2023-05-16T02:05:59;8.60;99.90
64396;DHT22;50717;53.360;6.290;2023-05-16T02:08:26;9.30;99.90
64396;DHT22;50717;53.360;6.290;2023-05-16T02:10:52;9.10;99.90
64396;DHT22;50717;53.360;6.290;2023-05-16T02:13:18;8.90;99.90
64396;DHT22;50717;53.360;6.290;2023-05-16T02:15:44;8.70;99.90
64396;DHT22;50717;53.360;6.290;2023-05-16T02:18:10;8.90;99.90
64396;DHT22;50717;53.360;6.290;2023-05-16T02:20:36;8.60;99.90
64396;DHT22;50717;53.360;6.290;2023-05-16T02:23:02;9.00;99.90
64396;DHT22;50717;53.360;6.290;2023-05-16T02:25:28;9.00;99.90
64396;DHT22;50717;53.360;6.290;2023-05-16T02:27:54;9.10;99.90
64396;DHT22;50717;53.360;6.290;2023-05-16T02:30:21;8.70;99.90
64396;DHT22;50717;53.360;6.290;2023-05-16T02:32:47;9.00;99.90
64396;DHT22;50717;53.360;6.290;2023-05-16T02:35:13;8.80;99.90
64396;DHT22;50717;53.360;6.290;2023-05-16T02:37:40;8.60;99.90
64396;DHT22;50717;53.360;6.290;2023-05-16T02:40:06;8.70;99.90
64396;DHT22;50717;53.360;6.290;2023-05-16T02:42:32;8.50;99.90
64396;DHT22;50717;53.360;6.290;2023-05-16T02:44:58;8.50;99.90
64396;DHT22;50717;53.360;6.290;2023-05-16T02:47:24;8.80;99.90
64396;DHT22;50717;53.360;6.290;2023-05-16T02:49:50;8.90;99.90
64396;DHT22;50717;53.360;6.290;2023-05-16T02:52:19;8.70;99.90
64396;DHT22;50717;53.360;6.290;2023-05-16T02:54:45;8.70;99.90
64396;DHT22;50717;53.360;6.290;2023-05-16T02:57:11;8.60;99.90
64396;DHT22;50717;53.360;6.290;2023-05-16T02:59:37;8.60;99.90
64396;DHT22;50717;53.360;6.290;2023-05-16T03:02:03;8.60;99.90
64396;DHT22;50717;53.360;6.290;2023-05-16T03:04:29;8.50;99.90
64396;DHT22;50717;53.360;6.290;2023-05-16T03:06:55;8.60;99.90
64396;DHT22;50717;53.360;6.290;2023-05-16T03:09:21;8.40;99.90
64396;DHT22;50717;53.360;6.290;2023-05-16T03:11:47;8.50;99.90
64396;DHT22;50717;53.360;6.290;2023-05-16T03:14:13;8.50;99.90
64396;DHT22;50717;53.360;6.290;2023-05-16T03:16:39;8.70;99.90
64396;DHT22;50717;53.360;6.290;2023-05-16T03:19:06;8.40;99.90
64396;DHT22;50717;53.360;6.290;2023-05-16T03:21:31;8.70;99.90
64396;DHT22;50717;53.360;6.290;2023-05-16T03:23:57;8.60;99.90
64396;DHT22;50717;53.360;6.290;2023-05-16T03:26:24;9.00;99.90
64396;DHT22;50717;53.360;6.290;2023-05-16T03:28:50;8.50;99.90
64396;DHT22;50717;53.360;6.290;2023-05-16T03:31:16;8.30;99.90
64396;DHT22;50717;53.360;6.290;2023-05-16T03:33:42;8.70;99.90
64396;DHT22;50717;53.360;6.290;2023-05-16T03:36:08;8.70;99.90
64396;DHT22;50717;53.360;6.290;2023-05-16T03:38:34;8.70;99.90
64396;DHT22;50717;53.360;6.290;2023-05-16T03:41:00;8.90;99.90
64396;DHT22;50717;53.360;6.290;2023-05-16T03:43:26;8.50;99.90
64396;DHT22;50717;53.360;6.290;2023-05-16T03:45:51;8.60;99.90
64396;DHT22;50717;53.360;6.290;2023-05-16T03:48:17;8.80;99.90
64396;DHT22;50717;53.360;6.290;2023-05-16T03:50:43;8.60;99.90
64396;DHT22;50717;53.360;6.290;2023-05-16T03:53:09;8.50;99.90
64396;DHT22;50717;53.360;6.290;2023-05-16T03:55:35;9.10;99.90
64396;DHT22;50717;53.360;6.290;2023-05-16T03:58:00;8.70;99.90
64396;DHT22;50717;53.360;6.290;2023-05-16T04:00:26;8.90;99.90
64396;DHT22;50717;53.360;6.290;2023-05-16T04:02:52;8.70;99.90
64396;DHT22;50717;53.360;6.290;2023-05-16T04:05:18;8.70;99.90
64396;DHT22;50717;53.360;6.290;2023-05-16T04:10:10;8.80;99.90
64396;DHT22;50717;53.360;6.290;2023-05-16T04:12:36;8.30;99.90
64396;DHT22;50717;53.360;6.290;2023-05-16T04:15:03;8.80;99.90
64396;DHT22;50717;53.360;6.290;2023-05-16T04:17:29;8.60;99.90
64396;DHT22;50717;53.360;6.290;2023-05-16T04:19:54;8.80;99.90
64396;DHT22;50717;53.360;6.290;2023-05-16T04:22:21;8.80;99.90
64396;DHT22;50717;53.360;6.290;2023-05-16T04:24:47;8.80;99.90
64396;DHT22;50717;53.360;6.290;2023-05-16T04:27:13;8.90;99.90
64396;DHT22;50717;53.360;6.290;2023-05-16T04:29:39;8.90;99.90
64396;DHT22;50717;53.360;6.290;2023-05-16T04:32:05;8.90;99.90
64396;DHT22;50717;53.360;6.290;2023-05-16T04:34:32;9.10;99.90
64396;DHT22;50717;53.360;6.290;2023-05-16T04:36:58;8.90;99.90
64396;DHT22;50717;53.360;6.290;2023-05-16T04:39:24;9.20;99.90
64396;DHT22;50717;53.360;6.290;2023-05-16T04:41:50;9.10;99.90
64396;DHT22;50717;53.360;6.290;2023-05-16T04:44:16;9.50;99.90
64396;DHT22;50717;53.360;6.290;2023-05-16T04:46:42;9.30;99.90
64396;DHT22;50717;53.360;6.290;2023-05-16T04:49:07;9.30;99.90
64396;DHT22;50717;53.360;6.290;2023-05-16T04:51:33;9.30;99.90
64396;DHT22;50717;53.360;6.290;2023-05-16T04:53:59;9.30;99.90
64396;DHT22;50717;53.360;6.290;2023-05-16T04:56:25;9.30;99.90
64396;DHT22;50717;53.360;6.290;2023-05-16T04:58:53;9.50;99.90
64396;DHT22;50717;53.360;6.290;2023-05-16T05:01:19;9.50;99.90
64396;DHT22;50717;53.360;6.290;2023-05-16T05:03:45;9.60;99.90
64396;DHT22;50717;53.360;6.290;2023-05-16T05:06:10;9.80;99.90
64396;DHT22;50717;53.360;6.290;2023-05-16T05:08:36;9.80;99.90
64396;DHT22;50717;53.360;6.290;2023-05-16T05:11:02;9.80;99.90
64396;DHT22;50717;53.360;6.290;2023-05-16T05:13:28;9.80;99.90
64396;DHT22;50717;53.360;6.290;2023-05-16T05:15:53;9.50;99.90
64396;DHT22;50717;53.360;6.290;2023-05-16T05:18:19;9.70;99.90
64396;DHT22;50717;53.360;6.290;2023-05-16T05:20:45;9.70;99.90
64396;DHT22;50717;53.360;6.290;2023-05-16T05:23:11;9.80;99.90
64396;DHT22;50717;53.360;6.290;2023-05-16T05:25:37;10.10;99.90
64396;DHT22;50717;53.360;6.290;2023-05-16T05:28:03;10.00;99.90
64396;DHT22;50717;53.360;6.290;2023-05-16T05:30:29;10.30;99.90
64396;DHT22;50717;53.360;6.290;2023-05-16T05:32:55;10.20;99.90
64396;DHT22;50717;53.360;6.290;2023-05-16T05:35:20;10.20;99.90
64396;DHT22;50717;53.360;6.290;2023-05-16T05:37:46;9.90;99.90
64396;DHT22;50717;53.360;6.290;2023-05-16T05:40:12;10.10;99.90
64396;DHT22;50717;53.360;6.290;2023-05-16T05:42:38;9.90;99.90
64396;DHT22;50717;53.360;6.290;2023-05-16T05:45:04;10.20;99.90
64396;DHT22;50717;53.360;6.290;2023-05-16T05:47:29;10.00;99.90
64396;DHT22;50717;53.360;6.290;2023-05-16T05:49:55;10.20;99.90
64396;DHT22;50717;53.360;6.290;2023-05-16T05:52:21;10.10;99.90
64396;DHT22;50717;53.360;6.290;2023-05-16T05:54:47;10.20;99.90
64396;DHT22;50717;53.360;6.290;2023-05-16T05:57:13;9.90;99.90
64396;DHT22;50717;53.360;6.290;2023-05-16T05:59:38;9.90;99.90
64396;DHT22;50717;53.360;6.290;2023-05-16T06:02:04;10.00;99.90
64396;DHT22;50717;53.360;6.290;2023-05-16T06:04:30;10.10;99.90
64396;DHT22;50717;53.360;6.290;2023-05-16T06:06:56;10.30;99.90
64396;DHT22;50717;53.360;6.290;2023-05-16T06:09:22;10.10;99.90
64396;DHT22;50717;53.360;6.290;2023-05-16T06:11:48;10.20;99.90
64396;DHT22;50717;53.360;6.290;2023-05-16T06:14:14;10.10;99.90
64396;DHT22;50717;53.360;6.290;2023-05-16T06:16:40;10.40;99.90
64396;DHT22;50717;53.360;6.290;2023-05-16T06:19:06;10.60;99.90
64396;DHT22;50717;53.360;6.290;2023-05-16T06:21:32;10.60;99.90
64396;DHT22;50717;53.360;6.290;2023-05-16T06:23:58;10.40;99.90
64396;DHT22;50717;53.360;6.290;2023-05-16T06:26:23;10.20;99.90
64396;DHT22;50717;53.360;6.290;2023-05-16T06:28:49;9.90;99.90
64396;DHT22;50717;53.360;6.290;2023-05-16T06:31:15;10.60;99.90
64396;DHT22;50717;53.360;6.290;2023-05-16T06:33:40;10.60;99.90
64396;DHT22;50717;53.360;6.290;2023-05-16T06:36:06;10.90;99.90
64396;DHT22;50717;53.360;6.290;2023-05-16T06:38:32;10.70;99.90
64396;DHT22;50717;53.360;6.290;2023-05-16T06:40:58;11.20;99.90
64396;DHT22;50717;53.360;6.290;2023-05-16T06:43:24;10.90;99.90
64396;DHT22;50717;53.360;6.290;2023-05-16T06:45:49;11.00;99.90
64396;DHT22;50717;53.360;6.290;2023-05-16T06:48:17;11.30;99.90
64396;DHT22;50717;53.360;6.290;2023-05-16T06:50:49;10.80;99.90
64396;DHT22;50717;53.360;6.290;2023-05-16T06:53:17;10.70;99.90
64396;DHT22;50717;53.360;6.290;2023-05-16T06:55:42;10.90;99.90
64396;DHT22;50717;53.360;6.290;2023-05-16T06:58:09;10.60;99.90
64396;DHT22;50717;53.360;6.290;2023-05-16T07:00:34;10.80;99.90
64396;DHT22;50717;53.360;6.290;2023-05-16T07:03:01;10.60;99.90
64396;DHT22;50717;53.360;6.290;2023-05-16T07:05:26;10.60;99.90
64396;DHT22;50717;53.360;6.290;2023-05-16T07:07:52;10.20;99.90
64396;DHT22;50717;53.360;6.290;2023-05-16T07:10:18;10.60;99.90
64396;DHT22;50717;53.360;6.290;2023-05-16T07:12:43;10.60;99.90
64396;DHT22;50717;53.360;6.290;2023-05-16T07:15:09;11.20;99.90
64396;DHT22;50717;53.360;6.290;2023-05-16T07:17:36;11.10;99.90
64396;DHT22;50717;53.360;6.290;2023-05-16T07:20:01;11.20;99.90
64396;DHT22;50717;53.360;6.290;2023-05-16T07:22:27;11.60;99.90
64396;DHT22;50717;53.360;6.290;2023-05-16T07:24:53;11.60;99.90
64396;DHT22;50717;53.360;6.290;2023-05-16T07:27:21;11.50;99.90
64396;DHT22;50717;53.360;6.290;2023-05-16T07:29:47;11.10;99.90
64396;DHT22;50717;53.360;6.290;2023-05-16T07:32:13;11.50;99.90
64396;DHT22;50717;53.360;6.290;2023-05-16T07:34:39;11.70;99.90
64396;DHT22;50717;53.360;6.290;2023-05-16T07:37:05;11.60;99.90
64396;DHT22;50717;53.360;6.290;2023-05-16T07:39:40;11.70;99.90
64396;DHT22;50717;53.360;6.290;2023-05-16T07:42:06;12.10;99.90
64396;DHT22;50717;53.360;6.290;2023-05-16T07:44:32;12.20;99.90
64396;DHT22;50717;53.360;6.290;2023-05-16T07:46:58;11.10;99.90
64396;DHT22;50717;53.360;6.290;2023-05-16T07:49:24;10.40;99.90
64396;DHT22;50717;53.360;6.290;2023-05-16T07:51:50;9.80;99.90
64396;DHT22;50717;53.360;6.290;2023-05-16T07:54:16;9.60;99.90
64396;DHT22;50717;53.360;6.290;2023-05-16T07:56:42;9.80;99.90
64396;DHT22;50717;53.360;6.290;2023-05-16T07:59:08;9.90;99.90
64396;DHT22;50717;53.360;6.290;2023-05-16T08:01:34;10.20;99.90
64396;DHT22;50717;53.360;6.290;2023-05-16T08:04:00;10.80;99.90
64396;DHT22;50717;53.360;6.290;2023-05-16T08:06:26;11.20;99.90
64396;DHT22;50717;53.360;6.290;2023-05-16T08:08:51;10.70;99.90
64396;DHT22;50717;53.360;6.290;2023-05-16T08:11:18;11.20;99.90
64396;DHT22;50717;53.360;6.290;2023-05-16T08:13:47;11.00;99.90
64396;DHT22;50717;53.360;6.290;2023-05-16T08:16:13;11.60;99.90
64396;DHT22;50717;53.360;6.290;2023-05-16T08:18:39;11.20;99.90
64396;DHT22;50717;53.360;6.290;2023-05-16T08:21:05;11.10;99.90
64396;DHT22;50717;53.360;6.290;2023-05-16T08:23:30;11.20;99.90
64396;DHT22;50717;53.360;6.290;2023-05-16T08:25:56;11.40;99.90
64396;DHT22;50717;53.360;6.290;2023-05-16T08:28:23;11.50;99.90
64396;DHT22;50717;53.360;6.290;2023-05-16T08:30:49;11.70;99.90
64396;DHT22;50717;53.360;6.290;2023-05-16T08:33:14;11.10;99.90
64396;DHT22;50717;53.360;6.290;2023-05-16T08:35:43;11.60;99.90
64396;DHT22;50717;53.360;6.290;2023-05-16T08:38:09;11.60;99.90
64396;DHT22;50717;53.360;6.290;2023-05-16T08:40:35;11.80;99.90
64396;DHT22;50717;53.360;6.290;2023-05-16T08:43:01;11.60;99.90
64396;DHT22;50717;53.360;6.290;2023-05-16T08:45:27;11.60;99.90
64396;DHT22;50717;53.360;6.290;2023-05-16T08:47:54;11.70;99.90
64396;DHT22;50717;53.360;6.290;2023-05-16T08:50:23;11.60;99.90
64396;DHT22;50717;53.360;6.290;2023-05-16T08:52:51;12.10;99.90
64396;DHT22;50717;53.360;6.290;2023-05-16T08:55:22;11.90;99.90
64396;DHT22;50717;53.360;6.290;2023-05-16T08:57:50;12.10;99.90
64396;DHT22;50717;53.360;6.290;2023-05-16T09:00:17;12.40;99.90
64396;DHT22;50717;53.360;6.290;2023-05-16T09:02:44;11.90;99.90
64396;DHT22;50717;53.360;6.290;2023-05-16T09:05:12;12.10;99.90
64396;DHT22;50717;53.360;6.290;2023-05-16T09:07:38;11.90;99.90
64396;DHT22;50717;53.360;6.290;2023-05-16T09:10:08;12.00;99.90
64396;DHT22;50717;53.360;6.290;2023-05-16T09:12:34;12.00;99.90
64396;DHT22;50717;53.360;6.290;2023-05-16T09:15:05;12.10;99.90
64396;DHT22;50717;53.360;6.290;2023-05-16T09:17:47;12.00;99.90
64396;DHT22;50717;53.360;6.290;2023-05-16T09:20:14;12.10;99.90
64396;DHT22;50717;53.360;6.290;2023-05-16T09:22:58;12.00;99.90
64396;DHT22;50717;53.360;6.290;2023-05-16T09:25:26;11.60;99.90
64396;DHT22;50717;53.360;6.290;2023-05-16T09:27:53;11.60;99.90
64396;DHT22;50717;53.360;6.290;2023-05-16T09:30:27;12.10;99.90
64396;DHT22;50717;53.360;6.290;2023-05-16T09:32:53;12.40;99.90
64396;DHT22;50717;53.360;6.290;2023-05-16T09:35:20;12.50;99.90
64396;DHT22;50717;53.360;6.290;2023-05-16T09:37:47;12.70;99.90
64396;DHT22;50717;53.360;6.290;2023-05-16T09:40:13;12.80;99.90
64396;DHT22;50717;53.360;6.290;2023-05-16T09:42:40;12.40;99.90
64396;DHT22;50717;53.360;6.290;2023-05-16T09:45:07;12.60;99.90
64396;DHT22;50717;53.360;6.290;2023-05-16T09:47:36;12.20;99.90
64396;DHT22;50717;53.360;6.290;2023-05-16T09:50:10;12.20;99.90
64396;DHT22;50717;53.360;6.290;2023-05-16T09:52:37;12.40;99.90
64396;DHT22;50717;53.360;6.290;2023-05-16T09:55:06;13.20;99.90
64396;DHT22;50717;53.360;6.290;2023-05-16T09:57:32;12.60;99.90
64396;DHT22;50717;53.360;6.290;2023-05-16T10:00:09;12.40;99.90
64396;DHT22;50717;53.360;6.290;2023-05-16T10:02:36;12.90;99.90
64396;DHT22;50717;53.360;6.290;2023-05-16T10:05:03;12.90;99.90
64396;DHT22;50717;53.360;6.290;2023-05-16T10:07:30;12.90;99.90
64396;DHT22;50717;53.360;6.290;2023-05-16T10:10:06;13.20;99.90
64396;DHT22;50717;53.360;6.290;2023-05-16T10:12:33;13.10;99.90
64396;DHT22;50717;53.360;6.290;2023-05-16T10:15:04;13.10;99.90
64396;DHT22;50717;53.360;6.290;2023-05-16T10:17:33;13.40;99.90
64396;DHT22;50717;53.360;6.290;2023-05-16T10:20:03;13.20;99.90
64396;DHT22;50717;53.360;6.290;2023-05-16T10:22:34;13.30;99.90
64396;DHT22;50717;53.360;6.290;2023-05-16T10:25:26;13.40;99.90
64396;DHT22;50717;53.360;6.290;2023-05-16T10:27:54;13.60;99.90
64396;DHT22;50717;53.360;6.290;2023-05-16T10:30:21;13.30;99.90
64396;DHT22;50717;53.360;6.290;2023-05-16T10:32:49;13.40;99.90
64396;DHT22;50717;53.360;6.290;2023-05-16T10:35:16;13.20;99.90
64396;DHT22;50717;53.360;6.290;2023-05-16T10:37:43;13.40;99.90
64396;DHT22;50717;53.360;6.290;2023-05-16T10:40:10;13.30;99.90
64396;DHT22;50717;53.360;6.290;2023-05-16T10:42:36;13.80;99.90
64396;DHT22;50717;53.360;6.290;2023-05-16T10:45:15;13.50;99.90
64396;DHT22;50717;53.360;6.290;2023-05-16T10:47:57;13.50;99.90
64396;DHT22;50717;53.360;6.290;2023-05-16T10:50:56;14.10;99.90
64396;DHT22;50717;53.360;6.290;2023-05-16T10:53:29;13.70;99.90
64396;DHT22;50717;53.360;6.290;2023-05-16T10:58:41;14.10;99.90
64396;DHT22;50717;53.360;6.290;2023-05-16T11:01:28;14.20;99.90
64396;DHT22;50717;53.360;6.290;2023-05-16T11:06:43;13.80;99.90
64396;DHT22;50717;53.360;6.290;2023-05-16T11:14:23;13.20;99.90
64396;DHT22;50717;53.360;6.290;2023-05-16T11:19:33;13.70;99.90
64396;DHT22;50717;53.360;6.290;2023-05-16T11:22:24;14.10;99.90
64396;DHT22;50717;53.360;6.290;2023-05-16T11:27:32;14.00;99.90
64396;DHT22;50717;53.360;6.290;2023-05-16T11:30:17;14.10;99.90
64396;DHT22;50717;53.360;6.290;2023-05-16T11:32:45;14.10;99.90
64396;DHT22;50717;53.360;6.290;2023-05-16T11:35:16;14.20;99.90
64396;DHT22;50717;53.360;6.290;2023-05-16T11:37:43;13.90;99.90
64396;DHT22;50717;53.360;6.290;2023-05-16T11:40:10;14.30;99.90
64396;DHT22;50717;53.360;6.290;2023-05-16T11:42:42;14.50;99.90
64396;DHT22;50717;53.360;6.290;2023-05-16T11:45:14;14.40;99.90
64396;DHT22;50717;53.360;6.290;2023-05-16T11:47:41;14.50;99.90
64396;DHT22;50717;53.360;6.290;2023-05-16T11:50:13;14.50;99.90
64396;DHT22;50717;53.360;6.290;2023-05-16T11:52:40;13.90;99.90
64396;DHT22;50717;53.360;6.290;2023-05-16T11:55:08;13.90;99.90
64396;DHT22;50717;53.360;6.290;2023-05-16T11:57:37;13.70;99.90
64396;DHT22;50717;53.360;6.290;2023-05-16T12:00:20;13.90;99.90
64396;DHT22;50717;53.360;6.290;2023-05-16T12:02:49;14.10;99.90
64396;DHT22;50717;53.360;6.290;2023-05-16T12:05:16;14.10;99.90
64396;DHT22;50717;53.360;6.290;2023-05-16T12:07:43;13.80;99.90
64396;DHT22;50717;53.360;6.290;2023-05-16T12:10:11;13.50;99.90
64396;DHT22;50717;53.360;6.290;2023-05-16T12:12:39;13.70;99.90
64396;DHT22;50717;53.360;6.290;2023-05-16T12:15:06;13.80;99.90
64396;DHT22;50717;53.360;6.290;2023-05-16T12:17:33;13.30;99.90
64396;DHT22;50717;53.360;6.290;2023-05-16T12:19:59;13.00;99.90
64396;DHT22;50717;53.360;6.290;2023-05-16T12:22:26;12.60;99.90
64396;DHT22;50717;53.360;6.290;2023-05-16T12:24:51;12.10;99.90
64396;DHT22;50717;53.360;6.290;2023-05-16T12:27:20;12.10;99.90
64396;DHT22;50717;53.360;6.290;2023-05-16T12:29:47;12.00;99.90
64396;DHT22;50717;53.360;6.290;2023-05-16T12:32:13;12.10;99.90
64396;DHT22;50717;53.360;6.290;2023-05-16T12:34:48;12.40;99.90
64396;DHT22;50717;53.360;6.290;2023-05-16T12:37:15;13.20;99.90
64396;DHT22;50717;53.360;6.290;2023-05-16T12:39:41;13.40;99.90
64396;DHT22;50717;53.360;6.290;2023-05-16T12:42:06;13.10;99.90
64396;DHT22;50717;53.360;6.290;2023-05-16T12:44:34;13.50;99.90
64396;DHT22;50717;53.360;6.290;2023-05-16T12:47:01;13.60;99.90
64396;DHT22;50717;53.360;6.290;2023-05-16T12:49:27;13.70;99.90
64396;DHT22;50717;53.360;6.290;2023-05-16T12:51:54;13.80;99.90
64396;DHT22;50717;53.360;6.290;2023-05-16T12:54:21;13.50;99.90
64396;DHT22;50717;53.360;6.290;2023-05-16T12:56:47;13.20;99.90
64396;DHT22;50717;53.360;6.290;2023-05-16T12:59:13;13.00;99.90
64396;DHT22;50717;53.360;6.290;2023-05-16T13:01:40;12.40;99.90
64396;DHT22;50717;53.360;6.290;2023-05-16T13:04:06;12.00;99.90
64396;DHT22;50717;53.360;6.290;2023-05-16T13:06:33;11.80;99.90
64396;DHT22;50717;53.360;6.290;2023-05-16T13:08:59;11.80;99.90
64396;DHT22;50717;53.360;6.290;2023-05-16T13:11:25;12.10;99.90
64396;DHT22;50717;53.360;6.290;2023-05-16T13:13:51;12.00;99.90
64396;DHT22;50717;53.360;6.290;2023-05-16T13:16:16;12.40;99.90
64396;DHT22;50717;53.360;6.290;2023-05-16T13:18:42;12.60;99.90
64396;DHT22;50717;53.360;6.290;2023-05-16T13:21:08;12.10;99.90
64396;DHT22;50717;53.360;6.290;2023-05-16T13:23:33;12.40;99.90
64396;DHT22;50717;53.360;6.290;2023-05-16T13:25:59;12.40;99.90
64396;DHT22;50717;53.360;6.290;2023-05-16T13:28:25;12.10;99.90
64396;DHT22;50717;53.360;6.290;2023-05-16T13:30:51;12.10;99.90
64396;DHT22;50717;53.360;6.290;2023-05-16T13:33:17;12.00;99.90
64396;DHT22;50717;53.360;6.290;2023-05-16T13:35:43;11.70;99.90
64396;DHT22;50717;53.360;6.290;2023-05-16T13:38:09;12.20;99.90
64396;DHT22;50717;53.360;6.290;2023-05-16T13:40:35;12.60;99.90
64396;DHT22;50717;53.360;6.290;2023-05-16T13:43:01;12.50;99.90
64396;DHT22;50717;53.360;6.290;2023-05-16T13:45:27;12.20;99.90
64396;DHT22;50717;53.360;6.290;2023-05-16T13:47:53;12.10;99.90
64396;DHT22;50717;53.360;6.290;2023-05-16T13:50:18;12.10;99.90
64396;DHT22;50717;53.360;6.290;2023-05-16T13:52:45;12.20;99.90
64396;DHT22;50717;53.360;6.290;2023-05-16T13:55:12;12.10;99.90
64396;DHT22;50717;53.360;6.290;2023-05-16T13:57:38;12.40;99.90
64396;DHT22;50717;53.360;6.290;2023-05-16T14:00:04;12.40;99.90
64396;DHT22;50717;53.360;6.290;2023-05-16T14:02:41;12.20;99.90
64396;DHT22;50717;53.360;6.290;2023-05-16T14:05:07;12.20;99.90
64396;DHT22;50717;53.360;6.290;2023-05-16T14:07:34;12.30;99.90
64396;DHT22;50717;53.360;6.290;2023-05-16T14:10:00;12.60;99.90
64396;DHT22;50717;53.360;6.290;2023-05-16T14:12:25;13.10;99.90
64396;DHT22;50717;53.360;6.290;2023-05-16T14:14:51;13.30;99.90
64396;DHT22;50717;53.360;6.290;2023-05-16T14:17:17;13.40;99.90
64396;DHT22;50717;53.360;6.290;2023-05-16T14:19:43;14.00;99.90
64396;DHT22;50717;53.360;6.290;2023-05-16T14:22:09;13.90;99.90
64396;DHT22;50717;53.360;6.290;2023-05-16T14:24:34;13.90;99.90
64396;DHT22;50717;53.360;6.290;2023-05-16T14:27:00;13.90;99.90
64396;DHT22;50717;53.360;6.290;2023-05-16T14:29:26;14.50;99.90
64396;DHT22;50717;53.360;6.290;2023-05-16T14:31:52;14.90;99.90
64396;DHT22;50717;53.360;6.290;2023-05-16T14:34:17;14.80;99.90
64396;DHT22;50717;53.360;6.290;2023-05-16T14:36:43;14.10;99.90
64396;DHT22;50717;53.360;6.290;2023-05-16T14:39:09;13.90;99.90
64396;DHT22;50717;53.360;6.290;2023-05-16T14:41:34;13.90;99.90
64396;DHT22;50717;53.360;6.290;2023-05-16T14:44:00;13.90;99.90
64396;DHT22;50717;53.360;6.290;2023-05-16T14:46:26;13.60;99.90
64396;DHT22;50717;53.360;6.290;2023-05-16T14:48:51;14.00;99.90
64396;DHT22;50717;53.360;6.290;2023-05-16T14:51:17;14.40;99.90
64396;DHT22;50717;53.360;6.290;2023-05-16T14:53:43;14.30;99.90
64396;DHT22;50717;53.360;6.290;2023-05-16T14:56:09;14.40;99.90
64396;DHT22;50717;53.360;6.290;2023-05-16T14:58:35;14.30;99.90
64396;DHT22;50717;53.360;6.290;2023-05-16T15:01:00;14.20;99.90
64396;DHT22;50717;53.360;6.290;2023-05-16T15:03:26;13.90;99.90
64396;DHT22;50717;53.360;6.290;2023-05-16T15:05:51;13.40;99.90
64396;DHT22;50717;53.360;6.290;2023-05-16T15:08:17;13.70;99.90
64396;DHT22;50717;53.360;6.290;2023-05-16T15:10:43;13.30;99.90
64396;DHT22;50717;53.360;6.290;2023-05-16T15:13:09;13.00;99.90
64396;DHT22;50717;53.360;6.290;2023-05-16T15:15:35;13.40;99.90
64396;DHT22;50717;53.360;6.290;2023-05-16T15:18:03;13.20;99.90
64396;DHT22;50717;53.360;6.290;2023-05-16T15:20:29;13.00;99.90
64396;DHT22;50717;53.360;6.290;2023-05-16T15:22:54;13.10;99.90
64396;DHT22;50717;53.360;6.290;2023-05-16T15:25:20;13.20;99.90
64396;DHT22;50717;53.360;6.290;2023-05-16T15:27:46;13.50;99.90
64396;DHT22;50717;53.360;6.290;2023-05-16T15:30:12;13.10;99.90
64396;DHT22;50717;53.360;6.290;2023-05-16T15:32:39;13.20;99.90
64396;DHT22;50717;53.360;6.290;2023-05-16T15:35:05;13.50;99.90
64396;DHT22;50717;53.360;6.290;2023-05-16T15:37:30;12.80;99.90
64396;DHT22;50717;53.360;6.290;2023-05-16T15:39:56;13.00;99.90
64396;DHT22;50717;53.360;6.290;2023-05-16T15:42:22;12.70;99.90
64396;DHT22;50717;53.360;6.290;2023-05-16T15:44:47;12.80;99.90
64396;DHT22;50717;53.360;6.290;2023-05-16T15:47:13;12.50;99.90
64396;DHT22;50717;53.360;6.290;2023-05-16T15:49:39;12.70;99.90
64396;DHT22;50717;53.360;6.290;2023-05-16T15:52:04;12.40;99.90
64396;DHT22;50717;53.360;6.290;2023-05-16T15:54:30;12.90;99.90
64396;DHT22;50717;53.360;6.290;2023-05-16T15:56:56;12.90;99.90
64396;DHT22;50717;53.360;6.290;2023-05-16T15:59:22;12.50;99.90
64396;DHT22;50717;53.360;6.290;2023-05-16T16:01:47;13.00;99.90
64396;DHT22;50717;53.360;6.290;2023-05-16T16:04:13;12.90;99.90
64396;DHT22;50717;53.360;6.290;2023-05-16T16:06:39;13.00;99.90
64396;DHT22;50717;53.360;6.290;2023-05-16T16:09:04;13.60;99.90
64396;DHT22;50717;53.360;6.290;2023-05-16T16:11:30;13.60;99.90